Time;durP1;ratioP1;P1;durP2;ratioP2;P2;SDS_P1;SDS_P2;PMS_P1;PMS_P2;Temp;Humidity;BMP_temperature;BMP_pressure;BME280_temperature;BME280_humidity;BME280_pressure;Samples;Min_cycle;Max_cycle;Signal;HPM_P1;HPM_P2
2024/03/26 00:01:57;;;;;;;8.88;4.45;;;;;;;;;;6246957;23;20020;-91
2024/03/26 00:04:23;;;;;;;10.35;5.40;;;;;;;;;;6221702;23;20024;-91
2024/03/26 00:06:50;;;;;;;8.88;5.30;;;;;;;;;;6221068;23;20028;-91
2024/03/26 00:09:16;;;;;;;9.60;4.82;;;;;;;;;;6221665;23;20016;-91
2024/03/26 00:11:42;;;;;;;9.98;4.97;;;;;;;;;;6246661;23;20020;-91
2024/03/26 00:14:08;;;;;;;9.50;4.95;;;;;;;;;;6221514;23;20345;-91
2024/03/26 00:16:34;;;;;;;8.57;5.25;;;;;;;;;;6221457;23;20016;-91
2024/03/26 00:19:01;;;;;;;8.35;4.72;;;;;;;;;;6246947;23;20131;-90
2024/03/26 00:21:27;;;;;;;9.77;4.80;;;;;;;;;;6246585;23;20020;-91
2024/03/26 00:23:53;;;;;;;8.02;3.90;;;;;;;;;;6221512;23;20024;-91
2024/03/26 00:26:19;;;;;;;9.25;4.55;;;;;;;;;;6247000;23;20028;-90
2024/03/26 00:28:46;;;;;;;8.00;3.97;;;;;;;;;;6246768;23;20024;-90
2024/03/26 00:31:12;;;;;;;9.18;5.93;;;;;;;;;;6221140;23;20099;-90
2024/03/26 00:33:38;;;;;;;8.73;4.47;;;;;;;;;;6246477;23;20016;-90
2024/03/26 00:36:04;;;;;;;9.07;4.38;;;;;;;;;;6221182;23;20016;-90
2024/03/26 00:38:31;;;;;;;7.70;3.90;;;;;;;;;;6222024;23;20024;-90
2024/03/26 00:40:58;;;;;;;5.68;3.78;;;;;;;;;;6246933;23;20441;-89
2024/03/26 00:43:25;;;;;;;7.45;4.05;;;;;;;;;;6220818;23;20449;-90
2024/03/26 00:45:51;;;;;;;6.35;4.28;;;;;;;;;;6221273;23;20027;-90
2024/03/26 00:48:17;;;;;;;10.55;4.60;;;;;;;;;;6220508;23;20077;-89
2024/03/26 00:50:43;;;;;;;5.30;3.85;;;;;;;;;;6220934;23;20023;-90
2024/03/26 00:53:10;;;;;;;7.93;4.07;;;;;;;;;;6220998;23;20027;-90
2024/03/26 00:55:36;;;;;;;7.35;4.03;;;;;;;;;;6221014;23;20020;-89
2024/03/26 00:58:02;;;;;;;6.75;3.90;;;;;;;;;;6221206;23;20027;-89
2024/03/26 01:00:29;;;;;;;5.90;3.55;;;;;;;;;;6226768;23;20463;-90
2024/03/26 01:02:55;;;;;;;10.52;3.58;;;;;;;;;;6270624;22;20004;-89
2024/03/26 01:05:21;;;;;;;6.57;4.00;;;;;;;;;;6252973;22;20338;-90
2024/03/26 01:07:47;;;;;;;6.40;4.15;;;;;;;;;;6246218;23;20483;-89
2024/03/26 01:10:14;;;;;;;6.13;3.15;;;;;;;;;;6221000;23;20023;-90
2024/03/26 01:12:41;;;;;;;10.02;4.10;;;;;;;;;;6246019;23;20020;-90
2024/03/26 01:15:07;;;;;;;10.50;3.40;;;;;;;;;;6220565;23;20031;-89
2024/03/26 01:17:33;;;;;;;5.30;3.33;;;;;;;;;;6245474;23;20024;-90
2024/03/26 01:20:00;;;;;;;6.82;3.45;;;;;;;;;;6246108;23;20016;-90
2024/03/26 01:22:26;;;;;;;5.47;3.25;;;;;;;;;;6220820;23;20020;-90
2024/03/26 01:24:52;;;;;;;5.28;3.35;;;;;;;;;;6220684;23;20023;-89
2024/03/26 01:27:18;;;;;;;7.90;3.42;;;;;;;;;;6220702;23;20020;-89
2024/03/26 01:29:45;;;;;;;8.50;4.50;;;;;;;;;;6245831;23;20063;-89
2024/03/26 01:32:11;;;;;;;6.75;4.00;;;;;;;;;;6245770;23;20024;-89
2024/03/26 01:34:37;;;;;;;4.88;3.58;;;;;;;;;;6246193;23;20020;-89
2024/03/26 01:37:03;;;;;;;9.88;3.47;;;;;;;;;;6220648;23;20024;-89
2024/03/26 01:39:30;;;;;;;7.57;3.80;;;;;;;;;;6220441;23;20020;-88
2024/03/26 01:41:56;;;;;;;8.15;4.30;;;;;;;;;;6220556;23;20024;-89
2024/03/26 01:44:22;;;;;;;5.97;3.70;;;;;;;;;;6245763;23;20070;-88
2024/03/26 01:46:48;;;;;;;5.30;4.03;;;;;;;;;;6245614;23;20020;-89
2024/03/26 01:49:15;;;;;;;5.63;4.30;;;;;;;;;;6246700;23;20103;-89
2024/03/26 01:51:43;;;;;;;7.55;4.00;;;;;;;;;;6221083;23;20031;-88
2024/03/26 01:54:11;;;;;;;6.30;3.80;;;;;;;;;;6246311;23;20026;-88
2024/03/26 01:56:39;;;;;;;4.78;3.17;;;;;;;;;;6245990;23;20039;-88
2024/03/26 01:59:05;;;;;;;11.20;3.80;;;;;;;;;;6220649;23;20027;-88
2024/03/26 02:01:31;;;;;;;5.95;3.83;;;;;;;;;;6246077;23;20031;-88
2024/03/26 02:03:57;;;;;;;9.30;3.95;;;;;;;;;;6246082;23;20021;-88
2024/03/26 02:06:24;;;;;;;6.72;3.80;;;;;;;;;;6221076;23;20024;-88
2024/03/26 02:08:51;;;;;;;5.85;3.45;;;;;;;;;;6221146;23;20066;-88
2024/03/26 02:11:17;;;;;;;7.00;3.55;;;;;;;;;;6220920;23;20081;-88
2024/03/26 02:13:47;;;;;;;5.00;3.65;;;;;;;;;;6220664;23;20345;-88
2024/03/26 02:16:13;;;;;;;7.20;3.58;;;;;;;;;;6251080;23;20024;-88
2024/03/26 02:18:39;;;;;;;6.57;2.92;;;;;;;;;;6267733;22;20004;-84
2024/03/26 02:21:06;;;;;;;5.22;3.28;;;;;;;;;;6221925;23;20024;-88
2024/03/26 02:23:32;;;;;;;5.82;3.33;;;;;;;;;;6220842;23;20021;-88
2024/03/26 02:25:58;;;;;;;5.63;3.55;;;;;;;;;;6220323;23;20031;-88
2024/03/26 02:28:24;;;;;;;7.72;3.30;;;;;;;;;;6223338;23;20020;-88
2024/03/26 02:30:51;;;;;;;5.03;3.15;;;;;;;;;;6222441;23;20030;-88
2024/03/26 02:33:17;;;;;;;7.60;3.40;;;;;;;;;;6221941;23;20020;-88
2024/03/26 02:35:43;;;;;;;9.25;3.15;;;;;;;;;;6221791;23;20024;-88
2024/03/26 02:38:09;;;;;;;5.07;2.90;;;;;;;;;;6222200;23;20027;-88
2024/03/26 02:40:35;;;;;;;5.78;3.58;;;;;;;;;;6222432;23;20027;-88
2024/03/26 02:43:02;;;;;;;6.22;3.08;;;;;;;;;;6222141;23;20031;-89
2024/03/26 02:45:29;;;;;;;3.40;3.10;;;;;;;;;;6221813;23;20026;-88
2024/03/26 02:47:55;;;;;;;4.03;3.10;;;;;;;;;;6222009;23;20028;-88
2024/03/26 02:50:21;;;;;;;5.95;3.20;;;;;;;;;;6222324;23;20028;-88
2024/03/26 02:52:47;;;;;;;6.10;2.67;;;;;;;;;;6247386;23;20027;-89
2024/03/26 02:55:13;;;;;;;5.47;3.35;;;;;;;;;;6247366;23;20024;-88
2024/03/26 02:57:40;;;;;;;7.13;3.50;;;;;;;;;;6222421;23;20047;-89
2024/03/26 03:00:06;;;;;;;7.95;3.28;;;;;;;;;;6222557;23;20017;-89
2024/03/26 03:02:33;;;;;;;7.75;3.03;;;;;;;;;;6247479;23;20020;-88
2024/03/26 03:04:59;;;;;;;7.97;3.42;;;;;;;;;;6225994;23;20069;-88
2024/03/26 03:07:26;;;;;;;6.40;3.35;;;;;;;;;;6222260;23;20345;-89
2024/03/26 03:09:52;;;;;;;3.63;3.33;;;;;;;;;;6246918;23;20810;-89
2024/03/26 03:12:18;;;;;;;8.15;4.07;;;;;;;;;;6246916;23;20024;-88
2024/03/26 03:14:44;;;;;;;7.75;3.88;;;;;;;;;;6224177;23;20016;-88
2024/03/26 03:17:11;;;;;;;5.45;3.55;;;;;;;;;;6222013;23;20024;-88
2024/03/26 03:19:37;;;;;;;4.93;3.28;;;;;;;;;;6221581;23;20016;-89
2024/03/26 03:22:03;;;;;;;4.05;3.30;;;;;;;;;;6247050;23;20062;-88
2024/03/26 03:24:30;;;;;;;4.05;3.65;;;;;;;;;;6247665;23;20065;-89
2024/03/26 03:26:56;;;;;;;4.43;3.15;;;;;;;;;;6222063;23;20453;-88
2024/03/26 03:29:22;;;;;;;5.25;3.28;;;;;;;;;;6222397;23;20021;-88
2024/03/26 03:31:48;;;;;;;8.00;3.47;;;;;;;;;;6259909;23;20028;-88
2024/03/26 03:34:14;;;;;;;5.55;3.78;;;;;;;;;;6271091;22;20068;-88
2024/03/26 03:36:41;;;;;;;6.35;3.40;;;;;;;;;;6221987;23;20024;-88
2024/03/26 03:39:08;;;;;;;3.78;3.38;;;;;;;;;;6247062;23;20016;-88
2024/03/26 03:41:34;;;;;;;12.77;4.47;;;;;;;;;;6221379;23;20452;-88
2024/03/26 03:44:00;;;;;;;17.52;10.10;;;;;;;;;;6246888;23;20070;-88
2024/03/26 03:46:26;;;;;;;9.05;6.28;;;;;;;;;;6221952;23;20341;-88
2024/03/26 03:48:53;;;;;;;5.63;3.35;;;;;;;;;;6221341;23;20024;-88
2024/03/26 03:51:19;;;;;;;55.03;22.63;;;;;;;;;;6221152;23;20027;-87
2024/03/26 03:53:45;;;;;;;7.82;3.92;;;;;;;;;;6221254;23;20027;-88
2024/03/26 03:56:11;;;;;;;6.50;3.63;;;;;;;;;;6246814;23;20027;-87
2024/03/26 03:58:38;;;;;;;4.93;3.10;;;;;;;;;;6246722;23;20020;-88
2024/03/26 04:01:04;;;;;;;6.50;4.78;;;;;;;;;;6221599;23;20065;-88
2024/03/26 04:03:31;;;;;;;7.55;4.03;;;;;;;;;;6221535;23;20031;-89
2024/03/26 04:05:57;;;;;;;9.13;6.28;;;;;;;;;;6246638;23;20020;-88
2024/03/26 04:08:23;;;;;;;8.50;5.68;;;;;;;;;;6246607;23;20024;-88
2024/03/26 04:10:49;;;;;;;7.80;3.78;;;;;;;;;;6221504;23;20471;-88
2024/03/26 04:13:15;;;;;;;4.45;3.28;;;;;;;;;;6220976;23;20024;-88
2024/03/26 04:15:42;;;;;;;7.53;3.40;;;;;;;;;;6246422;23;20024;-87
2024/03/26 04:18:08;;;;;;;4.72;3.28;;;;;;;;;;6221187;23;20030;-88
2024/03/26 04:20:34;;;;;;;6.45;3.70;;;;;;;;;;6246626;23;20016;-87
2024/03/26 04:23:01;;;;;;;6.80;4.20;;;;;;;;;;6221384;23;20024;-88
2024/03/26 04:25:27;;;;;;;6.82;4.85;;;;;;;;;;6221291;23;20063;-87
2024/03/26 04:27:53;;;;;;;3.72;3.20;;;;;;;;;;6221420;23;20023;-87
2024/03/26 04:30:19;;;;;;;12.80;3.08;;;;;;;;;;6246454;23;20031;-88
2024/03/26 04:32:46;;;;;;;6.28;4.00;;;;;;;;;;6246515;23;20016;-87
2024/03/26 04:35:12;;;;;;;4.43;3.90;;;;;;;;;;6245979;23;20031;-87
2024/03/26 04:37:38;;;;;;;7.50;3.40;;;;;;;;;;6246619;23;20031;-88
2024/03/26 04:40:05;;;;;;;7.45;3.25;;;;;;;;;;6246252;23;20349;-87
2024/03/26 04:42:32;;;;;;;8.93;4.00;;;;;;;;;;6247020;23;20028;-88
2024/03/26 04:44:58;;;;;;;5.13;3.60;;;;;;;;;;6221358;23;20020;-87
2024/03/26 04:47:25;;;;;;;4.68;3.40;;;;;;;;;;6263066;22;20020;-87
2024/03/26 04:49:51;;;;;;;4.70;4.05;;;;;;;;;;6264564;22;20026;-88
2024/03/26 04:52:18;;;;;;;5.28;3.42;;;;;;;;;;6220510;23;20020;-87
2024/03/26 04:54:44;;;;;;;4.55;3.85;;;;;;;;;;6220979;23;20016;-88
2024/03/26 04:57:10;;;;;;;4.53;3.30;;;;;;;;;;6220744;23;20027;-87
2024/03/26 04:59:36;;;;;;;5.53;3.55;;;;;;;;;;6220665;23;20016;-88
2024/03/26 05:02:03;;;;;;;7.97;3.70;;;;;;;;;;6245973;23;20319;-87
2024/03/26 05:04:29;;;;;;;6.38;4.05;;;;;;;;;;6246083;23;20372;-88
2024/03/26 05:06:55;;;;;;;17.38;4.43;;;;;;;;;;6221011;23;20453;-87
2024/03/26 05:09:21;;;;;;;13.85;4.05;;;;;;;;;;6220552;23;20070;-87
2024/03/26 05:11:48;;;;;;;15.93;4.53;;;;;;;;;;6220809;23;20042;-88
2024/03/26 05:14:14;;;;;;;5.40;3.80;;;;;;;;;;6220481;23;20023;-88
2024/03/26 05:16:40;;;;;;;11.45;4.63;;;;;;;;;;6246219;23;20024;-87
2024/03/26 05:19:06;;;;;;;9.38;4.53;;;;;;;;;;6220557;23;20061;-87
2024/03/26 05:21:32;;;;;;;12.02;4.13;;;;;;;;;;6245500;23;20380;-88
2024/03/26 05:23:59;;;;;;;8.13;4.80;;;;;;;;;;6220860;23;20024;-87
2024/03/26 05:26:25;;;;;;;9.55;4.63;;;;;;;;;;6245937;23;20035;-87
2024/03/26 05:28:51;;;;;;;12.65;5.65;;;;;;;;;;6246046;23;20024;-87
2024/03/26 05:31:18;;;;;;;11.20;4.50;;;;;;;;;;6220748;23;20392;-88
2024/03/26 05:33:45;;;;;;;7.75;5.18;;;;;;;;;;6245624;23;20325;-87
2024/03/26 05:36:13;;;;;;;14.23;4.72;;;;;;;;;;6245718;23;20016;-87
2024/03/26 05:38:40;;;;;;;13.57;4.63;;;;;;;;;;6220969;23;20445;-87
2024/03/26 05:41:06;;;;;;;16.73;5.55;;;;;;;;;;6245724;23;20027;-87
2024/03/26 05:43:32;;;;;;;15.88;5.20;;;;;;;;;;6245971;23;20026;-87
2024/03/26 05:45:59;;;;;;;8.35;4.15;;;;;;;;;;6220626;23;20020;-88
2024/03/26 05:48:25;;;;;;;7.80;4.72;;;;;;;;;;6245919;23;20349;-87
2024/03/26 05:50:52;;;;;;;4.93;3.75;;;;;;;;;;6220769;23;20028;-88
2024/03/26 05:53:18;;;;;;;8.73;4.53;;;;;;;;;;6221602;23;20016;-87
2024/03/26 05:55:45;;;;;;;6.82;4.15;;;;;;;;;;6221070;23;20349;-86
2024/03/26 05:58:11;;;;;;;10.25;4.57;;;;;;;;;;6247052;23;20058;-87
2024/03/26 06:00:37;;;;;;;15.02;4.40;;;;;;;;;;6226240;23;20021;-88
2024/03/26 06:03:04;;;;;;;9.30;4.78;;;;;;;;;;6246111;22;20064;-85
2024/03/26 06:05:30;;;;;;;7.60;4.65;;;;;;;;;;6258852;23;20050;-87
2024/03/26 06:07:56;;;;;;;9.73;5.00;;;;;;;;;;6247899;23;20016;-87
2024/03/26 06:10:23;;;;;;;13.20;4.78;;;;;;;;;;6247829;23;20391;-87
2024/03/26 06:12:49;;;;;;;12.68;5.20;;;;;;;;;;6247482;23;20471;-87
2024/03/26 06:15:15;;;;;;;12.82;6.38;;;;;;;;;;6222181;23;20024;-87
2024/03/26 06:17:43;;;;;;;8.10;5.32;;;;;;;;;;6224231;23;20074;-87
2024/03/26 06:20:10;;;;;;;10.65;5.88;;;;;;;;;;6247542;23;20016;-87
2024/03/26 06:22:36;;;;;;;12.65;6.47;;;;;;;;;;6222658;23;20024;-87
2024/03/26 06:25:03;;;;;;;8.10;5.93;;;;;;;;;;6247410;23;20657;-87
2024/03/26 06:27:29;;;;;;;9.65;6.53;;;;;;;;;;6247585;23;20078;-88
2024/03/26 06:29:55;;;;;;;8.82;5.25;;;;;;;;;;6247863;23;20376;-88
2024/03/26 06:32:21;;;;;;;14.25;5.80;;;;;;;;;;6248065;23;20465;-88
2024/03/26 06:34:48;;;;;;;6.63;4.30;;;;;;;;;;6222224;23;20020;-89
2024/03/26 06:37:14;;;;;;;11.40;4.13;;;;;;;;;;6222858;23;20098;-89
2024/03/26 06:39:40;;;;;;;10.20;5.05;;;;;;;;;;6222054;23;20353;-89
2024/03/26 06:42:07;;;;;;;15.93;5.13;;;;;;;;;;6222052;23;20027;-88
2024/03/26 06:44:33;;;;;;;11.85;3.92;;;;;;;;;;6247770;23;20026;-90
2024/03/26 06:46:59;;;;;;;12.27;4.65;;;;;;;;;;6222017;23;20522;-89
2024/03/26 06:49:26;;;;;;;10.25;3.67;;;;;;;;;;6222302;23;20166;-89
2024/03/26 06:51:52;;;;;;;9.48;4.00;;;;;;;;;;6221810;23;20024;-90
2024/03/26 06:54:18;;;;;;;4.43;2.35;;;;;;;;;;6248110;23;20027;-90
2024/03/26 06:56:44;;;;;;;4.90;2.55;;;;;;;;;;6222384;23;20020;-89
2024/03/26 06:59:11;;;;;;;2.58;2.38;;;;;;;;;;6222282;23;20020;-90
2024/03/26 07:01:37;;;;;;;6.75;2.97;;;;;;;;;;6222959;23;20016;-90
2024/03/26 07:04:03;;;;;;;3.13;2.65;;;;;;;;;;6222356;23;20042;-91
2024/03/26 07:06:30;;;;;;;3.03;2.53;;;;;;;;;;6222483;23;20035;-91
2024/03/26 07:08:57;;;;;;;4.22;3.22;;;;;;;;;;6222593;23;20016;-90
2024/03/26 07:11:24;;;;;;;2.95;2.72;;;;;;;;;;6222530;23;20353;-91
2024/03/26 07:13:50;;;;;;;4.53;3.15;;;;;;;;;;6247642;23;20066;-91
2024/03/26 07:16:17;;;;;;;4.28;2.55;;;;;;;;;;6253097;23;20020;-91
2024/03/26 07:18:43;;;;;;;2.97;2.38;;;;;;;;;;6247316;23;20111;-87
2024/03/26 07:21:09;;;;;;;5.75;2.28;;;;;;;;;;6223349;23;20023;-92
2024/03/26 07:23:35;;;;;;;5.47;2.55;;;;;;;;;;6247137;23;20348;-92
2024/03/26 07:26:03;;;;;;;4.35;2.50;;;;;;;;;;6222082;23;20353;-92
2024/03/26 07:28:29;;;;;;;7.30;2.88;;;;;;;;;;6222286;23;20020;-92
2024/03/26 07:30:55;;;;;;;4.40;2.38;;;;;;;;;;6221927;23;20027;-92
2024/03/26 07:33:22;;;;;;;4.70;2.65;;;;;;;;;;6247045;23;20020;-92
2024/03/26 07:35:48;;;;;;;14.52;4.80;;;;;;;;;;6221872;23;20020;-91
2024/03/26 07:38:15;;;;;;;19.77;5.80;;;;;;;;;;6221286;23;20227;-92
2024/03/26 07:40:42;;;;;;;7.97;2.80;;;;;;;;;;6247032;23;20020;-91
2024/03/26 07:43:09;;;;;;;7.75;2.88;;;;;;;;;;6221927;23;20020;-91
2024/03/26 07:45:35;;;;;;;20.48;6.85;;;;;;;;;;6222455;23;20020;-91
2024/03/26 07:48:02;;;;;;;16.08;4.75;;;;;;;;;;6222099;23;20024;-91
2024/03/26 07:50:29;;;;;;;11.35;3.40;;;;;;;;;;6246910;23;20070;-91
2024/03/26 07:52:55;;;;;;;19.38;7.72;;;;;;;;;;6220462;23;20024;-91
2024/03/26 07:55:21;;;;;;;21.55;8.32;;;;;;;;;;6220622;23;20020;-92
2024/03/26 07:57:47;;;;;;;25.02;6.32;;;;;;;;;;6221024;23;20024;-92
2024/03/26 08:00:14;;;;;;;21.45;8.68;;;;;;;;;;6221760;23;20016;-92
2024/03/26 08:02:43;;;;;;;5.78;3.25;;;;;;;;;;6221319;23;20046;-91
2024/03/26 08:05:10;;;;;;;12.52;4.00;;;;;;;;;;6221211;23;20016;-91
2024/03/26 08:07:36;;;;;;;8.93;2.70;;;;;;;;;;6221688;23;20421;-92
2024/03/26 08:10:02;;;;;;;7.82;4.28;;;;;;;;;;6222604;23;20027;-92
2024/03/26 08:12:29;;;;;;;8.05;3.92;;;;;;;;;;6246245;23;20027;-92
2024/03/26 08:14:55;;;;;;;5.65;3.30;;;;;;;;;;6221106;23;20024;-92
2024/03/26 08:17:22;;;;;;;6.40;2.55;;;;;;;;;;6246329;23;20024;-92
2024/03/26 08:19:48;;;;;;;3.63;2.25;;;;;;;;;;6246966;23;20322;-92
2024/03/26 08:22:14;;;;;;;4.22;2.47;;;;;;;;;;6246687;23;20027;-92
2024/03/26 08:24:40;;;;;;;6.20;3.50;;;;;;;;;;6220936;23;20449;-92
2024/03/26 08:27:07;;;;;;;8.32;4.65;;;;;;;;;;6246405;23;20020;-91
2024/03/26 08:29:33;;;;;;;12.30;6.38;;;;;;;;;;6221451;23;20526;-92
2024/03/26 08:32:00;;;;;;;15.38;6.07;;;;;;;;;;6236538;23;20031;-90
2024/03/26 08:34:26;;;;;;;8.40;5.20;;;;;;;;;;6241619;23;20122;-91
2024/03/26 08:36:53;;;;;;;4.47;3.03;;;;;;;;;;6246469;23;20387;-90
2024/03/26 08:39:19;;;;;;;2.88;1.70;;;;;;;;;;6220860;23;20527;-91
2024/03/26 08:41:45;;;;;;;2.45;1.95;;;;;;;;;;6221063;23;20020;-89
2024/03/26 08:44:11;;;;;;;3.85;2.50;;;;;;;;;;6246009;23;20023;-89
2024/03/26 08:46:38;;;;;;;5.03;3.00;;;;;;;;;;6246903;23;20384;-88
2024/03/26 08:49:04;;;;;;;2.15;1.80;;;;;;;;;;6221188;23;20016;-89
2024/03/26 08:51:30;;;;;;;3.30;2.20;;;;;;;;;;6221094;23;20357;-89
2024/03/26 08:53:57;;;;;;;3.35;1.92;;;;;;;;;;6220785;23;20341;-88
2024/03/26 08:56:26;;;;;;;2.67;2.38;;;;;;;;;;6220708;23;20021;-89
2024/03/26 08:58:52;;;;;;;6.65;2.10;;;;;;;;;;6220922;23;20361;-89
2024/03/26 09:01:19;;;;;;;4.25;1.38;;;;;;;;;;6246080;23;20020;-89
2024/03/26 09:03:45;;;;;;;1.73;1.30;;;;;;;;;;6221105;23;20020;-87
2024/03/26 09:06:12;;;;;;;2.33;1.30;;;;;;;;;;6221649;23;20024;-87
2024/03/26 09:08:38;;;;;;;1.45;1.20;;;;;;;;;;6221287;23;20513;-87
2024/03/26 09:11:04;;;;;;;1.88;1.27;;;;;;;;;;6246112;23;20031;-88
2024/03/26 09:13:31;;;;;;;3.65;1.67;;;;;;;;;;6220755;23;20017;-88
2024/03/26 09:15:57;;;;;;;3.05;1.20;;;;;;;;;;6221896;23;20024;-88
2024/03/26 09:18:23;;;;;;;2.95;1.20;;;;;;;;;;6222546;23;20326;-87
2024/03/26 09:20:49;;;;;;;2.00;1.20;;;;;;;;;;6220779;23;20341;-86
2024/03/26 09:23:16;;;;;;;2.08;1.65;;;;;;;;;;6246173;23;20053;-88
2024/03/26 09:25:42;;;;;;;1.92;1.25;;;;;;;;;;6220514;23;20031;-87
2024/03/26 09:28:09;;;;;;;2.33;1.05;;;;;;;;;;6246647;23;20445;-87
2024/03/26 09:30:35;;;;;;;1.67;1.58;;;;;;;;;;6221046;23;20028;-87
2024/03/26 09:33:02;;;;;;;1.27;1.17;;;;;;;;;;6221044;23;20028;-88
2024/03/26 09:35:28;;;;;;;2.92;1.40;;;;;;;;;;6221107;23;20020;-89
2024/03/26 09:37:54;;;;;;;2.17;0.95;;;;;;;;;;6220575;23;20330;-87
2024/03/26 09:40:21;;;;;;;2.70;0.80;;;;;;;;;;6222750;23;20026;-88
2024/03/26 09:42:47;;;;;;;1.20;0.95;;;;;;;;;;6222655;23;20086;-88
2024/03/26 09:45:14;;;;;;;1.05;0.90;;;;;;;;;;6222485;23;20368;-88
2024/03/26 09:47:42;;;;;;;1.73;1.10;;;;;;;;;;6272206;22;20030;-87
2024/03/26 09:50:10;;;;;;;2.83;0.95;;;;;;;;;;6233841;23;20020;-88
2024/03/26 09:52:38;;;;;;;1.23;1.10;;;;;;;;;;6223389;23;20388;-88
2024/03/26 09:55:06;;;;;;;1.00;1.00;;;;;;;;;;6222331;23;20021;-87
2024/03/26 09:57:33;;;;;;;2.55;0.80;;;;;;;;;;6221958;23;20024;-88
2024/03/26 09:59:59;;;;;;;1.00;0.80;;;;;;;;;;6222419;23;20020;-88
2024/03/26 10:02:26;;;;;;;1.20;1.08;;;;;;;;;;6222316;23;20460;-88
2024/03/26 10:04:52;;;;;;;4.22;1.13;;;;;;;;;;6222606;23;20020;-88
2024/03/26 10:07:18;;;;;;;1.88;1.10;;;;;;;;;;6222573;23;20026;-88
2024/03/26 10:09:44;;;;;;;1.15;1.10;;;;;;;;;;6224105;23;20016;-88
2024/03/26 10:12:11;;;;;;;2.45;1.20;;;;;;;;;;6222429;23;20111;-88
2024/03/26 10:14:37;;;;;;;3.80;1.10;;;;;;;;;;6222454;23;20357;-88
2024/03/26 10:17:04;;;;;;;2.08;1.10;;;;;;;;;;6248019;23;20026;-89
2024/03/26 10:19:30;;;;;;;2.17;1.17;;;;;;;;;;6221815;23;20035;-89
2024/03/26 10:21:56;;;;;;;1.85;0.93;;;;;;;;;;6247582;23;20020;-88
2024/03/26 10:24:23;;;;;;;2.95;1.33;;;;;;;;;;6247765;23;20488;-88
2024/03/26 10:26:50;;;;;;;2.40;1.23;;;;;;;;;;6222516;23;20020;-88
2024/03/26 10:29:17;;;;;;;1.42;1.10;;;;;;;;;;6247484;23;20024;-89
2024/03/26 10:31:48;;;;;;;1.10;1.10;;;;;;;;;;6247682;23;20016;-89
2024/03/26 10:34:17;;;;;;;2.30;1.27;;;;;;;;;;6222279;23;20071;-89
2024/03/26 10:36:44;;;;;;;1.00;0.93;;;;;;;;;;6247722;23;20020;-87
2024/03/26 10:39:11;;;;;;;0.90;0.90;;;;;;;;;;6221907;23;20062;-88
2024/03/26 10:41:40;;;;;;;2.17;1.20;;;;;;;;;;6222184;23;20527;-88
2024/03/26 10:44:07;;;;;;;1.27;1.00;;;;;;;;;;6247189;23;20020;-87
2024/03/26 10:46:34;;;;;;;2.53;1.20;;;;;;;;;;6221957;23;20024;-88
2024/03/26 10:49:05;;;;;;;1.13;1.02;;;;;;;;;;6222495;23;20345;-87
2024/03/26 10:51:32;;;;;;;1.35;1.25;;;;;;;;;;6222688;23;20027;-89
2024/03/26 10:54:00;;;;;;;1.92;1.10;;;;;;;;;;6222210;23;20020;-87
2024/03/26 10:56:36;;;;;;;1.20;1.10;;;;;;;;;;6247132;23;20016;-88
2024/03/26 10:59:02;;;;;;;1.02;0.90;;;;;;;;;;6221895;23;20024;-88
2024/03/26 11:01:30;;;;;;;8.40;1.23;;;;;;;;;;6233319;23;20062;-87
2024/03/26 11:03:57;;;;;;;2.70;1.10;;;;;;;;;;6243037;23;20030;-88
2024/03/26 11:06:24;;;;;;;13.90;1.67;;;;;;;;;;6222362;23;20023;-87
2024/03/26 11:08:57;;;;;;;2.42;1.20;;;;;;;;;;6222568;23;20020;-87
2024/03/26 11:11:23;;;;;;;1.33;0.73;;;;;;;;;;6222100;23;20031;-85
2024/03/26 11:13:55;;;;;;;1.05;1.00;;;;;;;;;;6246654;23;20026;-87
2024/03/26 11:16:35;;;;;;;1.58;0.90;;;;;;;;;;6221260;23;20047;-85
2024/03/26 11:19:20;;;;;;;3.25;1.08;;;;;;;;;;6221697;23;20031;-87
2024/03/26 11:21:50;;;;;;;3.05;1.20;;;;;;;;;;6247447;23;20024;-87
2024/03/26 11:24:20;;;;;;;1.95;1.17;;;;;;;;;;6221571;23;20047;-85
2024/03/26 11:26:46;;;;;;;3.22;0.90;;;;;;;;;;6221823;23;20039;-87
2024/03/26 11:29:13;;;;;;;0.88;0.88;;;;;;;;;;6246996;23;20035;-87
2024/03/26 11:31:40;;;;;;;2.08;1.20;;;;;;;;;;6221337;23;20051;-87
2024/03/26 11:34:07;;;;;;;1.10;0.85;;;;;;;;;;6221630;23;20020;-89
2024/03/26 11:36:36;;;;;;;0.80;0.80;;;;;;;;;;6222593;23;20024;-91
2024/03/26 11:39:03;;;;;;;1.95;0.80;;;;;;;;;;6221909;23;20535;-87
2024/03/26 11:41:31;;;;;;;2.33;1.05;;;;;;;;;;6221309;23;20021;-88
2024/03/26 11:43:57;;;;;;;1.17;0.90;;;;;;;;;;6221220;23;20047;-88
2024/03/26 11:46:24;;;;;;;0.88;0.88;;;;;;;;;;6221467;23;20024;-88
2024/03/26 11:49:00;;;;;;;0.98;0.70;;;;;;;;;;6220641;23;20020;-85
2024/03/26 11:51:27;;;;;;;3.13;1.15;;;;;;;;;;6221454;23;20027;-88
2024/03/26 11:53:55;;;;;;;1.80;0.88;;;;;;;;;;6221391;23;20024;-87
2024/03/26 11:56:21;;;;;;;1.45;1.10;;;;;;;;;;6221760;23;20063;-87
2024/03/26 11:58:51;;;;;;;1.30;1.15;;;;;;;;;;6221508;23;20020;-87
2024/03/26 12:01:20;;;;;;;1.52;0.98;;;;;;;;;;6221511;23;20027;-87
2024/03/26 12:03:53;;;;;;;1.00;1.00;;;;;;;;;;6221477;23;20020;-87
2024/03/26 12:06:21;;;;;;;1.48;1.17;;;;;;;;;;6221471;23;20031;-88
2024/03/26 12:08:49;;;;;;;2.05;1.35;;;;;;;;;;6246075;23;20020;-88
2024/03/26 12:11:15;;;;;;;1.30;1.20;;;;;;;;;;6246530;23;20468;-88
2024/03/26 12:13:42;;;;;;;4.05;1.55;;;;;;;;;;6221192;23;20086;-89
2024/03/26 12:16:25;;;;;;;1.13;1.08;;;;;;;;;;6228350;23;20361;-88
2024/03/26 12:18:51;;;;;;;1.80;1.17;;;;;;;;;;6235370;23;20016;-87
2024/03/26 12:21:18;;;;;;;2.78;1.50;;;;;;;;;;6246685;23;20020;-88
2024/03/26 12:23:48;;;;;;;3.13;1.35;;;;;;;;;;6246614;23;20020;-88
2024/03/26 12:26:15;;;;;;;2.25;1.13;;;;;;;;;;6246749;23;20020;-88
2024/03/26 12:28:41;;;;;;;1.42;1.30;;;;;;;;;;6221157;23;20035;-89
2024/03/26 12:31:07;;;;;;;1.77;1.35;;;;;;;;;;6221292;23;20026;-88
2024/03/26 12:33:34;;;;;;;2.38;1.33;;;;;;;;;;6221599;23;20020;-88
2024/03/26 12:36:01;;;;;;;1.75;1.38;;;;;;;;;;6245993;23;20020;-88
2024/03/26 12:38:27;;;;;;;1.38;1.27;;;;;;;;;;6220940;23;20016;-89
2024/03/26 12:40:53;;;;;;;1.52;1.42;;;;;;;;;;6245897;23;20020;-89
2024/03/26 12:43:20;;;;;;;1.48;1.00;;;;;;;;;;6221003;23;20020;-88
2024/03/26 12:45:46;;;;;;;1.85;1.27;;;;;;;;;;6220865;23;20020;-88
2024/03/26 12:48:12;;;;;;;3.63;1.40;;;;;;;;;;6220770;23;20024;-88
2024/03/26 12:50:39;;;;;;;1.92;1.73;;;;;;;;;;6246293;23;20022;-87
2024/03/26 12:53:05;;;;;;;2.20;1.10;;;;;;;;;;6246070;23;20020;-87
2024/03/26 12:55:31;;;;;;;1.55;1.45;;;;;;;;;;6220795;23;20020;-88
2024/03/26 12:57:58;;;;;;;2.78;1.35;;;;;;;;;;6246797;23;20024;-88
2024/03/26 13:00:24;;;;;;;1.60;1.50;;;;;;;;;;6220966;23;20448;-88
2024/03/26 13:02:50;;;;;;;1.52;1.42;;;;;;;;;;6221134;23;20480;-88
2024/03/26 13:05:16;;;;;;;2.88;1.48;;;;;;;;;;6220336;23;20461;-86
2024/03/26 13:07:43;;;;;;;1.50;1.40;;;;;;;;;;6221289;23;20021;-88
2024/03/26 13:10:10;;;;;;;4.63;1.52;;;;;;;;;;6221017;23;20395;-88
2024/03/26 13:12:36;;;;;;;2.17;1.48;;;;;;;;;;6221195;23;20026;-89
2024/03/26 13:15:03;;;;;;;4.63;1.40;;;;;;;;;;6245770;23;20020;-88
2024/03/26 13:17:29;;;;;;;1.13;1.05;;;;;;;;;;6220848;23;20020;-88
2024/03/26 13:19:56;;;;;;;1.33;1.30;;;;;;;;;;6246085;23;20027;-89
2024/03/26 13:22:22;;;;;;;2.33;1.70;;;;;;;;;;6221163;23;20031;-88
2024/03/26 13:24:48;;;;;;;1.70;1.48;;;;;;;;;;6220884;23;20345;-88
2024/03/26 13:27:14;;;;;;;1.88;1.48;;;;;;;;;;6220871;23;20017;-90
2024/03/26 13:29:40;;;;;;;1.55;1.45;;;;;;;;;;6246276;23;20031;-88
2024/03/26 13:32:07;;;;;;;1.90;1.80;;;;;;;;;;6257903;23;20031;-88
2024/03/26 13:34:33;;;;;;;1.50;1.30;;;;;;;;;;6226920;23;20020;-88
2024/03/26 13:36:59;;;;;;;1.90;1.80;;;;;;;;;;6220856;23;20024;-88
2024/03/26 13:39:26;;;;;;;1.73;1.60;;;;;;;;;;6220947;23;20346;-88
2024/03/26 13:41:52;;;;;;;2.08;1.60;;;;;;;;;;6246607;23;20460;-88
2024/03/26 13:44:18;;;;;;;1.92;1.40;;;;;;;;;;6220640;23;20472;-87
2024/03/26 13:46:44;;;;;;;1.75;1.65;;;;;;;;;;6220841;23;20330;-88
2024/03/26 13:49:15;;;;;;;1.55;1.40;;;;;;;;;;6246050;23;20346;-87
2024/03/26 13:51:42;;;;;;;9.48;6.03;;;;;;;;;;6220530;23;20016;-87
2024/03/26 13:54:09;;;;;;;1.85;1.70;;;;;;;;;;6220383;23;20031;-88
2024/03/26 13:56:35;;;;;;;1.77;1.67;;;;;;;;;;6221219;23;20027;-86
2024/03/26 13:59:01;;;;;;;2.65;1.75;;;;;;;;;;6220926;23;20345;-88
2024/03/26 14:01:29;;;;;;;1.55;1.45;;;;;;;;;;6220997;23;20348;-88
2024/03/26 14:03:55;;;;;;;1.90;1.73;;;;;;;;;;6220949;23;20078;-88
2024/03/26 14:06:21;;;;;;;3.33;1.73;;;;;;;;;;6220880;23;20024;-88
2024/03/26 14:08:47;;;;;;;2.80;1.70;;;;;;;;;;6245906;23;20093;-88
2024/03/26 14:11:14;;;;;;;1.92;1.65;;;;;;;;;;6220651;23;20023;-88
2024/03/26 14:13:40;;;;;;;2.15;1.60;;;;;;;;;;6220891;23;20330;-88
2024/03/26 14:16:06;;;;;;;2.90;1.80;;;;;;;;;;6220586;23;20016;-87
2024/03/26 14:18:33;;;;;;;3.88;1.80;;;;;;;;;;6220833;23;20025;-88
2024/03/26 14:21:00;;;;;;;2.30;2.10;;;;;;;;;;6245474;23;20024;-87
2024/03/26 14:23:26;;;;;;;4.70;1.83;;;;;;;;;;6245604;23;20454;-88
2024/03/26 14:25:52;;;;;;;1.88;1.77;;;;;;;;;;6247190;23;20020;-88
2024/03/26 14:28:19;;;;;;;1.70;1.60;;;;;;;;;;6222441;23;20020;-88
2024/03/26 14:30:45;;;;;;;4.80;2.00;;;;;;;;;;6222125;23;20027;-87
2024/03/26 14:33:12;;;;;;;2.20;1.63;;;;;;;;;;6222589;23;20024;-89
2024/03/26 14:35:38;;;;;;;2.17;1.95;;;;;;;;;;6247545;23;20016;-87
2024/03/26 14:38:04;;;;;;;1.77;1.67;;;;;;;;;;6247101;23;20024;-88